Time;durP1;ratioP1;P1;durP2;ratioP2;P2;SDS_P1;SDS_P2;PMS_P1;PMS_P2;Temp;Humidity;BMP_temperature;BMP_pressure;BME280_temperature;BME280_humidity;BME280_pressure;Samples;Min_cycle;Max_cycle;Signal;HPM_P1;HPM_P2
2023/12/31 00:00:31;;;;;;;34.00;20.60;;;8.70;99.90;;;;;;5054134;28;20099;-78
2023/12/31 00:02:56;;;;;;;35.77;19.90;;;8.60;99.90;;;;;;5052781;28;20029;-77
2023/12/31 00:05:22;;;;;;;34.70;19.27;;;8.70;99.90;;;;;;5054256;28;20506;-77
2023/12/31 00:07:48;;;;;;;34.73;20.43;;;8.60;99.90;;;;;;5053329;28;20035;-78
2023/12/31 00:10:13;;;;;;;35.23;20.33;;;8.70;99.90;;;;;;5052636;28;20119;-78
2023/12/31 00:12:39;;;;;;;36.83;20.20;;;8.60;99.90;;;;;;5052395;28;20283;-78
2023/12/31 00:15:05;;;;;;;36.73;19.37;;;8.50;99.90;;;;;;5053640;28;20013;-78
2023/12/31 00:17:30;;;;;;;41.90;20.30;;;8.50;99.90;;;;;;5052867;28;20025;-78
2023/12/31 00:19:56;;;;;;;32.00;19.30;;;8.50;99.90;;;;;;5041785;28;20040;-78
2023/12/31 00:22:22;;;;;;;35.97;18.55;;;8.60;99.90;;;;;;5039170;28;20037;-79
2023/12/31 00:24:54;;;;;;;36.17;19.15;;;8.50;99.90;;;;;;5043773;28;20035;-78
2023/12/31 00:27:20;;;;;;;31.65;18.08;;;8.60;99.90;;;;;;5041988;28;20506;-78
2023/12/31 00:29:46;;;;;;;30.73;17.05;;;8.50;99.90;;;;;;5039526;28;20041;-78
2023/12/31 00:32:11;;;;;;;38.67;16.40;;;8.50;99.90;;;;;;5051137;28;20029;-79
2023/12/31 00:34:37;;;;;;;31.93;15.83;;;8.60;99.90;;;;;;5043997;28;20027;-79
2023/12/31 00:37:04;;;;;;;30.60;15.18;;;8.60;99.90;;;;;;5068968;28;20032;-79
2023/12/31 00:39:30;;;;;;;26.13;14.73;;;8.60;99.90;;;;;;5054692;28;20036;-79
2023/12/31 00:41:57;;;;;;;30.55;15.50;;;8.50;99.90;;;;;;5040405;28;20331;-78
2023/12/31 00:44:23;;;;;;;28.95;14.48;;;8.50;99.90;;;;;;5041059;28;20228;-79
2023/12/31 00:46:48;;;;;;;29.13;13.88;;;8.40;99.90;;;;;;5055946;28;20051;-78
2023/12/31 00:49:14;;;;;;;25.40;14.23;;;8.60;99.90;;;;;;5038233;28;20569;-78
2023/12/31 00:51:40;;;;;;;23.42;13.10;;;8.70;99.90;;;;;;5035074;28;20025;-79
2023/12/31 00:54:06;;;;;;;22.47;13.00;;;8.60;99.90;;;;;;5032098;28;20036;-78
2023/12/31 00:56:31;;;;;;;24.17;13.17;;;8.70;99.90;;;;;;5036882;28;20511;-79
2023/12/31 00:58:57;;;;;;;21.47;10.97;;;8.70;99.90;;;;;;5045761;28;20036;-79
2023/12/31 01:01:22;;;;;;;25.23;12.53;;;8.90;99.90;;;;;;5046201;28;20091;-78
2023/12/31 01:03:48;;;;;;;24.23;11.83;;;8.90;99.90;;;;;;5035851;28;20558;-78
2023/12/31 01:06:14;;;;;;;21.00;9.50;;;8.80;99.90;;;;;;5055094;28;20032;-78
2023/12/31 01:08:42;;;;;;;16.77;9.30;;;8.90;99.90;;;;;;5039990;28;20048;-79
2023/12/31 01:11:07;;;;;;;15.68;9.50;;;9.00;99.90;;;;;;5043592;28;20105;-80
2023/12/31 01:13:33;;;;;;;17.83;9.23;;;8.90;99.90;;;;;;5047019;28;20128;-79
2023/12/31 01:15:59;;;;;;;16.67;8.70;;;8.80;99.90;;;;;;5042843;28;20083;-79
2023/12/31 01:18:24;;;;;;;14.73;8.00;;;8.90;99.90;;;;;;5040757;28;20029;-78
2023/12/31 01:20:50;;;;;;;16.67;8.32;;;9.00;99.90;;;;;;5036924;28;20040;-79
2023/12/31 01:23:15;;;;;;;13.87;7.23;;;8.80;99.90;;;;;;5034006;28;20029;-79
2023/12/31 01:25:42;;;;;;;12.13;7.03;;;8.60;99.90;;;;;;5042681;28;20556;-78
2023/12/31 01:28:08;;;;;;;12.15;6.55;;;9.00;99.90;;;;;;5040478;28;20022;-79
2023/12/31 01:30:33;;;;;;;7.03;4.77;;;9.10;99.90;;;;;;5040203;28;20037;-78
2023/12/31 01:32:59;;;;;;;9.13;5.10;;;9.30;99.90;;;;;;5044018;28;20060;-80
2023/12/31 01:35:24;;;;;;;10.83;5.00;;;9.20;99.90;;;;;;5044167;28;20091;-79
2023/12/31 01:37:50;;;;;;;10.53;4.53;;;8.90;99.90;;;;;;5044324;28;20029;-79
2023/12/31 01:40:16;;;;;;;8.30;4.28;;;9.20;99.90;;;;;;5048116;28;20044;-78
2023/12/31 01:42:44;;;;;;;9.27;4.20;;;9.30;99.90;;;;;;5042389;28;20047;-80
2023/12/31 01:45:10;;;;;;;9.82;3.25;;;9.30;99.90;;;;;;5041036;28;20112;-79
2023/12/31 01:47:37;;;;;;;6.80;3.58;;;9.70;99.90;;;;;;5046619;28;20510;-79
2023/12/31 01:50:05;;;;;;;9.18;3.30;;;10.00;99.90;;;;;;5044361;28;20494;-79
2023/12/31 01:52:32;;;;;;;4.47;2.65;;;10.30;99.90;;;;;;5041568;28;20022;-80
2023/12/31 01:55:00;;;;;;;5.78;3.05;;;10.40;99.90;;;;;;5039400;28;20018;-80
2023/12/31 01:57:29;;;;;;;7.07;2.97;;;10.20;99.90;;;;;;5041226;28;20422;-81
2023/12/31 01:59:55;;;;;;;6.68;3.25;;;10.30;99.70;;;;;;5038336;28;20109;-79
2023/12/31 02:02:22;;;;;;;4.38;3.15;;;10.20;99.90;;;;;;5040170;28;20036;-79
2023/12/31 02:04:48;;;;;;;6.28;3.92;;;10.20;99.80;;;;;;5040500;28;20045;-79
2023/12/31 02:07:14;;;;;;;8.95;4.65;;;10.30;99.90;;;;;;5039518;28;20179;-79
2023/12/31 02:09:39;;;;;;;9.57;4.90;;;10.10;99.90;;;;;;5039778;28;20579;-79
2023/12/31 02:12:06;;;;;;;7.30;5.20;;;9.90;99.90;;;;;;5040216;28;20031;-78
2023/12/31 02:14:32;;;;;;;9.82;5.00;;;9.90;99.90;;;;;;5065476;28;20403;-78
2023/12/31 02:16:57;;;;;;;19.07;4.87;;;10.00;99.90;;;;;;5040068;28;20037;-78
2023/12/31 02:19:23;;;;;;;8.87;5.27;;;9.80;99.90;;;;;;5037991;28;20986;-78
2023/12/31 02:21:49;;;;;;;10.50;5.60;;;9.90;99.90;;;;;;5039231;28;20104;-79
2023/12/31 02:24:18;;;;;;;7.63;4.30;;;9.80;99.90;;;;;;5042241;28;20124;-78
2023/12/31 02:26:43;;;;;;;9.55;4.53;;;9.80;99.90;;;;;;5042679;28;20037;-78
2023/12/31 02:29:09;;;;;;;9.30;4.57;;;9.90;99.90;;;;;;5038173;28;20517;-78
2023/12/31 02:31:35;;;;;;;5.77;3.70;;;9.60;99.90;;;;;;5041483;28;20083;-79
2023/12/31 02:34:00;;;;;;;7.43;4.70;;;9.40;99.90;;;;;;5040890;28;20105;-79
2023/12/31 02:36:26;;;;;;;6.37;4.13;;;9.30;99.90;;;;;;5049225;28;20105;-79
2023/12/31 02:38:52;;;;;;;9.77;4.90;;;9.10;99.90;;;;;;5042699;28;20491;-78
2023/12/31 02:41:17;;;;;;;9.73;4.97;;;9.20;99.90;;;;;;5042304;28;20032;-79
2023/12/31 02:43:44;;;;;;;11.27;5.23;;;9.20;99.90;;;;;;5040145;28;20402;-79
2023/12/31 02:46:09;;;;;;;12.35;5.68;;;9.20;99.90;;;;;;5041189;28;20517;-78
2023/12/31 02:48:35;;;;;;;10.07;6.03;;;9.30;99.90;;;;;;5040126;28;20065;-78
2023/12/31 02:51:00;;;;;;;11.57;6.33;;;9.30;99.90;;;;;;5038616;28;20031;-78
2023/12/31 02:53:26;;;;;;;12.50;7.43;;;9.20;99.90;;;;;;5051473;28;20376;-78
2023/12/31 02:55:51;;;;;;;10.57;6.17;;;9.30;99.90;;;;;;5041284;28;20706;-79
2023/12/31 02:58:17;;;;;;;9.50;5.73;;;9.30;99.90;;;;;;5038900;28;20030;-79
2023/12/31 03:00:43;;;;;;;12.30;6.63;;;9.30;99.90;;;;;;5038220;28;20071;-78
2023/12/31 03:03:08;;;;;;;9.00;5.80;;;9.40;99.90;;;;;;5057720;28;20097;-80
2023/12/31 03:05:34;;;;;;;10.52;6.47;;;9.20;99.90;;;;;;5034773;28;20046;-78
2023/12/31 03:08:00;;;;;;;10.50;6.20;;;9.10;99.90;;;;;;5043527;28;20041;-79
2023/12/31 03:10:26;;;;;;;13.87;7.00;;;9.00;99.90;;;;;;5038901;28;20025;-78
2023/12/31 03:12:52;;;;;;;;;;;9.00;99.90;;;;;;5035154;28;20548;-78
2023/12/31 03:15:19;;;;;;;11.75;6.00;;;9.00;99.90;;;;;;5037109;28;19920;-79
2023/12/31 03:17:44;;;;;;;14.45;7.10;;;9.00;99.90;;;;;;5043079;28;20159;-79
2023/12/31 03:20:10;;;;;;;13.60;7.70;;;9.00;99.90;;;;;;5032463;28;20104;-80
2023/12/31 03:22:36;;;;;;;18.63;8.40;;;9.00;99.90;;;;;;5043880;28;20061;-80
2023/12/31 03:25:02;;;;;;;12.55;6.63;;;9.10;99.90;;;;;;5041539;28;20061;-80
2023/12/31 03:27:28;;;;;;;13.85;7.07;;;9.10;99.90;;;;;;5041630;28;20427;-80
2023/12/31 03:29:53;;;;;;;11.63;7.87;;;9.00;99.90;;;;;;5041193;28;20069;-79
2023/12/31 03:32:19;;;;;;;19.90;8.97;;;9.00;99.90;;;;;;5043774;28;20395;-80
2023/12/31 03:34:45;;;;;;;11.53;7.77;;;9.10;99.90;;;;;;5047346;28;20509;-79
2023/12/31 03:37:10;;;;;;;14.53;7.60;;;9.20;99.90;;;;;;5051560;28;20107;-79
2023/12/31 03:39:36;;;;;;;22.33;9.37;;;9.20;99.90;;;;;;5046483;28;20029;-78
2023/12/31 03:42:01;;;;;;;17.30;9.03;;;9.30;99.90;;;;;;5035308;28;20046;-79
2023/12/31 03:44:27;;;;;;;22.57;8.67;;;9.20;99.90;;;;;;5045681;28;20414;-80
2023/12/31 03:46:53;;;;;;;15.53;9.20;;;9.20;99.90;;;;;;5042668;28;20036;-81
2023/12/31 03:49:21;;;;;;;17.43;9.93;;;9.20;99.90;;;;;;5050624;28;20461;-80
2023/12/31 03:51:47;;;;;;;20.30;9.93;;;9.20;99.90;;;;;;5044882;28;20056;-79
2023/12/31 03:54:13;;;;;;;23.75;10.52;;;9.20;99.90;;;;;;5035852;28;20107;-79
2023/12/31 03:56:38;;;;;;;18.33;9.82;;;9.20;99.90;;;;;;5041770;28;20030;-79
2023/12/31 03:59:04;;;;;;;20.83;9.43;;;9.40;99.90;;;;;;5044304;28;20025;-76
2023/12/31 04:01:30;;;;;;;22.10;10.68;;;9.40;99.90;;;;;;5045462;28;20087;-77
2023/12/31 04:03:56;;;;;;;26.60;10.18;;;9.40;99.90;;;;;;5043563;28;20722;-78
2023/12/31 04:06:22;;;;;;;18.95;9.43;;;9.30;99.90;;;;;;5041178;28;20035;-78
2023/12/31 04:08:48;;;;;;;22.63;9.95;;;9.30;99.90;;;;;;5042433;28;20029;-77
2023/12/31 04:11:14;;;;;;;17.67;9.23;;;9.20;99.90;;;;;;5038484;28;20032;-77
2023/12/31 04:13:43;;;;;;;18.17;8.98;;;9.30;99.90;;;;;;5044520;28;20506;-77
2023/12/31 04:16:09;;;;;;;15.32;9.52;;;9.30;99.90;;;;;;5042756;28;20090;-78
2023/12/31 04:18:35;;;;;;;17.27;9.40;;;9.30;99.90;;;;;;5033570;28;20029;-78
2023/12/31 04:21:02;;;;;;;20.30;9.70;;;9.20;99.90;;;;;;5038139;28;20072;-77
2023/12/31 04:23:28;;;;;;;25.00;10.25;;;9.30;99.90;;;;;;5034024;28;20021;-78
2023/12/31 04:25:54;;;;;;;13.65;8.60;;;9.30;99.90;;;;;;5043545;28;20521;-79
2023/12/31 04:28:19;;;;;;;14.97;8.57;;;9.20;99.90;;;;;;5047762;28;20033;-78
2023/12/31 04:30:45;;;;;;;15.30;9.07;;;9.20;99.90;;;;;;5040693;28;20033;-77
2023/12/31 04:33:11;;;;;;;17.00;8.77;;;9.40;99.90;;;;;;5047263;28;20037;-79
2023/12/31 04:35:37;;;;;;;16.50;9.77;;;9.40;99.90;;;;;;5054121;28;20378;-78
2023/12/31 04:38:07;;;;;;;14.25;8.00;;;9.50;99.90;;;;;;5047977;28;20115;-78
2023/12/31 04:40:32;;;;;;;14.95;8.50;;;9.50;99.90;;;;;;5037555;28;20033;-78
2023/12/31 04:42:58;;;;;;;17.98;9.20;;;9.60;99.90;;;;;;5042088;28;20044;-79
2023/12/31 04:45:24;;;;;;;12.63;7.87;;;9.50;99.90;;;;;;5045347;28;20037;-78
2023/12/31 04:47:49;;;;;;;17.13;8.75;;;9.60;99.90;;;;;;5047593;28;20068;-78
2023/12/31 04:50:15;;;;;;;15.63;7.63;;;9.80;99.90;;;;;;5043857;28;20044;-77
2023/12/31 04:52:41;;;;;;;13.73;8.20;;;9.80;99.90;;;;;;5038448;28;20026;-78
2023/12/31 04:55:16;;;;;;;15.60;9.07;;;9.60;99.90;;;;;;5040452;28;20025;-78
2023/12/31 04:57:42;;;;;;;18.42;8.15;;;9.60;99.90;;;;;;5045580;28;20052;-78
2023/12/31 05:00:08;;;;;;;15.43;8.60;;;9.60;99.90;;;;;;5052517;28;20410;-78
2023/12/31 05:02:34;;;;;;;16.10;7.32;;;9.70;99.90;;;;;;5042447;28;20309;-78
2023/12/31 05:05:02;;;;;;;13.50;7.18;;;9.70;99.90;;;;;;5042271;28;20053;-78
2023/12/31 05:07:28;;;;;;;15.98;8.32;;;9.70;99.90;;;;;;5045190;28;20021;-77
2023/12/31 05:09:55;;;;;;;13.32;7.88;;;9.70;99.90;;;;;;5038954;28;20021;-78
2023/12/31 05:12:21;;;;;;;22.73;8.25;;;9.70;99.90;;;;;;5041611;28;20024;-78
2023/12/31 05:14:47;;;;;;;13.20;7.47;;;9.80;99.90;;;;;;5042859;28;20543;-78
2023/12/31 05:17:13;;;;;;;13.30;7.55;;;9.70;99.90;;;;;;5038447;28;20446;-78
2023/12/31 05:19:39;;;;;;;11.88;7.10;;;9.80;99.90;;;;;;5041416;28;20119;-79
2023/12/31 05:22:05;;;;;;;9.47;6.37;;;9.80;99.90;;;;;;5040808;28;20529;-79
2023/12/31 05:24:30;;;;;;;13.37;7.07;;;9.70;99.90;;;;;;5039353;28;20291;-79
2023/12/31 05:26:59;;;;;;;11.60;6.23;;;10.00;99.90;;;;;;5037406;28;20110;-77
2023/12/31 05:29:24;;;;;;;14.57;7.60;;;10.00;99.90;;;;;;5048058;28;20028;-79
2023/12/31 05:31:50;;;;;;;10.02;6.78;;;10.10;99.90;;;;;;5042030;28;20043;-79
2023/12/31 05:34:16;;;;;;;20.50;7.23;;;10.10;99.90;;;;;;5047489;28;20064;-78
2023/12/31 05:36:41;;;;;;;11.33;6.47;;;10.00;99.90;;;;;;5042437;28;20497;-77
2023/12/31 05:39:12;;;;;;;12.13;7.20;;;10.10;99.90;;;;;;5043380;28;20021;-78
2023/12/31 05:41:39;;;;;;;14.25;7.03;;;10.20;99.90;;;;;;5067605;28;20041;-77
2023/12/31 05:44:04;;;;;;;;;;;10.10;99.90;;;;;;5037878;28;20037;-77
2023/12/31 05:46:30;;;;;;;13.32;7.40;;;9.90;99.90;;;;;;5042811;28;20334;-78
2023/12/31 05:48:55;;;;;;;9.77;6.40;;;9.90;99.90;;;;;;5050113;28;20041;-77
2023/12/31 05:51:21;;;;;;;13.60;7.32;;;10.00;99.90;;;;;;5044445;28;20406;-77
2023/12/31 05:53:47;;;;;;;15.20;6.82;;;10.10;99.90;;;;;;5037467;28;20026;-78
2023/12/31 05:56:13;;;;;;;11.50;5.57;;;10.00;99.90;;;;;;5044017;28;20032;-78
2023/12/31 05:58:42;;;;;;;11.95;5.88;;;10.00;99.90;;;;;;5044404;28;20033;-78
2023/12/31 06:01:08;;;;;;;10.23;6.25;;;10.00;99.90;;;;;;5039443;28;20586;-78
2023/12/31 06:03:34;;;;;;;9.98;6.88;;;9.90;99.90;;;;;;5044513;28;20020;-78
2023/12/31 06:06:03;;;;;;;13.30;6.93;;;9.80;99.90;;;;;;5043354;28;20457;-78
2023/12/31 06:08:28;;;;;;;11.18;6.82;;;9.80;99.90;;;;;;5047447;28;20037;-79
2023/12/31 06:10:54;;;;;;;13.83;6.17;;;9.70;99.90;;;;;;5037475;28;20037;-79
2023/12/31 06:13:20;;;;;;;13.20;6.75;;;9.70;99.90;;;;;;5054732;28;20052;-79
2023/12/31 06:15:46;;;;;;;14.85;6.97;;;9.70;99.90;;;;;;5039376;28;20116;-78
2023/12/31 06:18:12;;;;;;;12.25;6.55;;;9.60;99.90;;;;;;5042075;28;20040;-79
2023/12/31 06:20:38;;;;;;;12.77;6.17;;;9.80;99.90;;;;;;5046838;28;20032;-78
2023/12/31 06:23:04;;;;;;;11.45;6.78;;;9.90;99.90;;;;;;5038990;28;20333;-79
2023/12/31 06:25:29;;;;;;;9.75;5.55;;;9.80;99.90;;;;;;5037798;28;20048;-77
2023/12/31 06:27:57;;;;;;;15.00;6.47;;;9.80;99.90;;;;;;5046032;28;20030;-78
2023/12/31 06:30:23;;;;;;;12.98;6.05;;;9.80;99.90;;;;;;5044163;28;20263;-77
2023/12/31 06:32:48;;;;;;;12.73;6.15;;;9.60;99.90;;;;;;5042497;28;20108;-77
2023/12/31 06:35:14;;;;;;;13.57;5.88;;;9.60;99.90;;;;;;5045305;28;20167;-77
2023/12/31 06:37:40;;;;;;;12.87;5.93;;;9.40;99.90;;;;;;5042866;28;20117;-78
2023/12/31 06:40:08;;;;;;;13.93;6.13;;;9.40;99.90;;;;;;5034270;28;20291;-77
2023/12/31 06:42:34;;;;;;;12.88;6.43;;;9.60;99.90;;;;;;5041283;28;20028;-77
2023/12/31 06:44:59;;;;;;;15.60;6.90;;;9.60;99.90;;;;;;5042143;28;20052;-77
2023/12/31 06:47:25;;;;;;;16.67;6.43;;;9.50;99.90;;;;;;5038085;28;20033;-77
2023/12/31 06:49:52;;;;;;;15.18;6.43;;;9.60;99.90;;;;;;5040116;28;20645;-77
2023/12/31 06:52:18;;;;;;;14.10;6.40;;;9.50;99.90;;;;;;5054312;28;20036;-76
2023/12/31 06:54:44;;;;;;;12.77;6.18;;;9.50;99.90;;;;;;5042856;28;20030;-77
2023/12/31 06:57:09;;;;;;;13.57;6.43;;;9.70;99.90;;;;;;5034599;28;20116;-77
2023/12/31 06:59:35;;;;;;;14.93;6.03;;;9.70;99.90;;;;;;5037515;28;20048;-77
2023/12/31 07:02:01;;;;;;;16.67;6.30;;;9.70;99.90;;;;;;5044777;28;20049;-77
2023/12/31 07:04:26;;;;;;;14.10;6.70;;;9.60;99.90;;;;;;5042518;28;20038;-77
2023/12/31 07:06:52;;;;;;;16.30;7.23;;;9.60;99.90;;;;;;5034153;28;20276;-77
2023/12/31 07:09:18;;;;;;;13.53;7.37;;;9.70;99.90;;;;;;5041260;28;20102;-76
2023/12/31 07:11:44;;;;;;;13.40;7.00;;;9.80;99.90;;;;;;5041742;28;20029;-80
2023/12/31 07:14:10;;;;;;;10.27;6.73;;;9.90;99.90;;;;;;5037184;28;20091;-77
2023/12/31 07:16:39;;;;;;;12.53;7.40;;;9.80;99.90;;;;;;5041122;28;20294;-77
2023/12/31 07:19:05;;;;;;;12.55;6.55;;;9.80;99.90;;;;;;5040380;28;20283;-78
2023/12/31 07:21:30;;;;;;;9.55;6.68;;;9.80;99.90;;;;;;5047683;28;20037;-77
2023/12/31 07:23:58;;;;;;;14.60;7.33;;;9.80;99.90;;;;;;5043681;28;20033;-78
2023/12/31 07:26:25;;;;;;;12.70;6.75;;;9.70;99.90;;;;;;5037476;28;20029;-77
2023/12/31 07:28:51;;;;;;;11.30;6.55;;;9.70;99.90;;;;;;5037553;28;20079;-77
2023/12/31 07:31:17;;;;;;;11.20;6.57;;;9.70;99.90;;;;;;5041660;28;20533;-77
2023/12/31 07:33:43;;;;;;;14.88;6.50;;;9.50;99.90;;;;;;5038806;28;20517;-77
2023/12/31 07:36:09;;;;;;;12.93;6.23;;;9.50;99.90;;;;;;5047528;28;20029;-78
2023/12/31 07:38:34;;;;;;;13.23;6.57;;;9.50;99.90;;;;;;5047434;28;20726;-77
2023/12/31 07:41:00;;;;;;;10.90;6.53;;;9.50;99.90;;;;;;5040605;28;20037;-77
2023/12/31 07:43:26;;;;;;;12.68;6.30;;;9.60;99.90;;;;;;5039935;28;20024;-76
2023/12/31 07:45:52;;;;;;;11.30;6.20;;;9.60;99.90;;;;;;5055246;28;20041;-77
2023/12/31 07:48:18;;;;;;;10.27;5.97;;;9.60;99.90;;;;;;5048627;28;20033;-77
2023/12/31 07:50:43;;;;;;;9.70;6.10;;;9.80;99.90;;;;;;5040825;28;20554;-77
2023/12/31 07:53:09;;;;;;;12.77;6.77;;;9.80;99.90;;;;;;5051261;28;20037;-77
2023/12/31 07:55:34;;;;;;;14.63;6.50;;;9.90;99.90;;;;;;5035841;28;20079;-78
2023/12/31 07:58:00;;;;;;;17.93;6.37;;;9.90;99.90;;;;;;5035382;28;20083;-76
2023/12/31 08:00:26;;;;;;;8.57;5.90;;;9.90;99.90;;;;;;5041746;28;20025;-77
2023/12/31 08:02:51;;;;;;;17.23;5.70;;;9.90;99.90;;;;;;5042464;28;20038;-74
2023/12/31 08:05:17;;;;;;;9.33;6.10;;;10.10;99.90;;;;;;5038970;28;20033;-76
2023/12/31 08:07:43;;;;;;;13.98;6.32;;;10.00;99.90;;;;;;5041063;28;20525;-76
2023/12/31 08:10:11;;;;;;;8.40;5.38;;;10.10;99.90;;;;;;5039992;28;20040;-76
2023/12/31 08:12:37;;;;;;;18.40;6.38;;;10.10;99.90;;;;;;5045798;28;20373;-75
2023/12/31 08:15:03;;;;;;;11.07;5.53;;;10.10;99.90;;;;;;5037271;28;20031;-76
2023/12/31 08:17:29;;;;;;;;;;;10.10;99.90;;;;;;5044426;28;20116;-80
2023/12/31 08:19:55;;;;;;;10.68;5.35;;;10.20;99.90;;;;;;5041205;28;20004;-77
2023/12/31 08:22:20;;;;;;;11.40;5.43;;;10.20;99.90;;;;;;5045681;28;20037;-75
2023/12/31 08:24:46;;;;;;;13.40;6.33;;;10.20;99.90;;;;;;5042765;28;20045;-79
2023/12/31 08:27:11;;;;;;;8.23;5.27;;;10.40;99.90;;;;;;5041432;28;20087;-79
2023/12/31 08:29:40;;;;;;;12.77;6.07;;;10.40;99.90;;;;;;5048542;28;20062;-78
2023/12/31 08:32:05;;;;;;;11.90;6.55;;;10.50;99.90;;;;;;5039320;28;20033;-79
2023/12/31 08:34:31;;;;;;;13.00;6.22;;;10.80;99.90;;;;;;5049749;28;20028;-78
2023/12/31 08:36:57;;;;;;;12.83;6.13;;;10.80;99.90;;;;;;5050196;28;20466;-79
2023/12/31 08:39:22;;;;;;;11.80;6.37;;;10.80;99.90;;;;;;5042621;28;20120;-80
2023/12/31 08:41:48;;;;;;;11.00;6.37;;;10.90;99.90;;;;;;5046928;28;20494;-76
2023/12/31 08:44:13;;;;;;;13.73;6.77;;;11.00;99.90;;;;;;5045383;28;20048;-76
2023/12/31 08:46:39;;;;;;;14.63;6.73;;;10.80;99.90;;;;;;5040871;28;20119;-76
2023/12/31 08:49:06;;;;;;;15.87;6.90;;;10.90;99.90;;;;;;5037974;28;20031;-75
2023/12/31 08:51:32;;;;;;;12.23;6.28;;;11.00;99.90;;;;;;5035233;28;20803;-76
2023/12/31 08:53:58;;;;;;;16.30;6.70;;;10.90;99.90;;;;;;5045726;28;20033;-76
2023/12/31 08:56:24;;;;;;;10.00;6.63;;;10.90;99.90;;;;;;5039811;28;20112;-76
2023/12/31 08:58:49;;;;;;;11.70;5.90;;;10.90;99.90;;;;;;5047028;28;20059;-78
2023/12/31 09:01:16;;;;;;;9.10;6.40;;;11.00;99.90;;;;;;5043687;28;20030;-78
2023/12/31 09:03:42;;;;;;;17.02;7.32;;;11.10;99.90;;;;;;5040349;28;20032;-79
2023/12/31 09:06:10;;;;;;;12.60;7.27;;;11.10;99.90;;;;;;5042012;28;20500;-77
2023/12/31 09:08:38;;;;;;;16.67;7.18;;;11.30;99.90;;;;;;5044445;28;20032;-77
2023/12/31 09:11:04;;;;;;;15.20;7.28;;;11.20;99.90;;;;;;5049522;28;20036;-78
2023/12/31 09:13:30;;;;;;;15.90;6.70;;;11.20;99.90;;;;;;5042370;28;20407;-79
2023/12/31 09:15:55;;;;;;;9.30;6.23;;;11.20;99.90;;;;;;5041139;28;20030;-78
2023/12/31 09:18:23;;;;;;;14.40;6.63;;;11.10;99.90;;;;;;5042095;28;20033;-78
2023/12/31 09:20:49;;;;;;;14.85;7.28;;;11.20;99.90;;;;;;5039201;28;20025;-78
2023/12/31 09:23:16;;;;;;;10.52;6.35;;;11.20;99.90;;;;;;5045714;28;20021;-78
2023/12/31 09:25:42;;;;;;;19.13;7.00;;;11.30;99.90;;;;;;5038832;28;20088;-78
2023/12/31 09:28:08;;;;;;;17.70;6.70;;;11.30;99.90;;;;;;5041445;28;20055;-78
2023/12/31 09:30:33;;;;;;;14.33;6.37;;;11.40;99.90;;;;;;5046533;28;20084;-76
2023/12/31 09:32:59;;;;;;;13.73;5.70;;;11.40;99.90;;;;;;5036652;28;20037;-76
2023/12/31 09:35:25;;;;;;;14.30;6.30;;;11.40;99.90;;;;;;5040253;28;20108;-75
2023/12/31 09:37:51;;;;;;;7.80;5.57;;;11.50;99.90;;;;;;5066601;28;20034;-75
2023/12/31 09:40:17;;;;;;;17.52;8.70;;;11.50;99.90;;;;;;5034885;28;20482;-76
2023/12/31 09:42:49;;;;;;;10.70;6.20;;;11.50;99.90;;;;;;5041885;28;20126;-76
2023/12/31 09:45:24;;;;;;;11.32;7.43;;;11.60;99.90;;;;;;5039823;28;20033;-73
2023/12/31 09:47:52;;;;;;;13.35;6.53;;;11.60;99.90;;;;;;5045873;28;20033;-75
2023/12/31 09:50:24;;;;;;;7.93;5.40;;;11.60;99.90;;;;;;5038914;28;20027;-76
2023/12/31 09:52:50;;;;;;;12.57;5.93;;;11.60;99.90;;;;;;5039952;28;20033;-75
2023/12/31 09:55:20;;;;;;;12.75;5.88;;;11.60;99.90;;;;;;5045847;28;20110;-75
2023/12/31 09:57:47;;;;;;;14.15;6.13;;;11.50;99.90;;;;;;5040603;28;20043;-76
2023/12/31 10:00:13;;;;;;;12.35;6.72;;;11.50;99.90;;;;;;5043572;28;20032;-76
2023/12/31 10:02:39;;;;;;;16.80;6.00;;;11.50;99.90;;;;;;5038178;28;20032;-74
2023/12/31 10:05:05;;;;;;;11.18;6.35;;;11.50;99.90;;;;;;5037105;28;20033;-74
2023/12/31 10:07:31;;;;;;;10.02;5.70;;;11.50;99.90;;;;;;5042897;28;20025;-74
2023/12/31 10:10:00;;;;;;;13.47;5.60;;;11.50;99.90;;;;;;5030740;28;20037;-74
2023/12/31 10:12:27;;;;;;;10.70;6.32;;;11.50;99.90;;;;;;5041903;28;20036;-73
2023/12/31 10:14:53;;;;;;;9.35;5.63;;;11.50;99.90;;;;;;5040098;28;20056;-74
2023/12/31 10:17:20;;;;;;;10.57;5.85;;;11.50;99.90;;;;;;5041395;28;20515;-73
2023/12/31 10:19:45;;;;;;;7.95;5.55;;;11.50;99.90;;;;;;5037978;28;20677;-74
2023/12/31 10:22:13;;;;;;;11.23;6.25;;;11.40;99.90;;;;;;5036791;28;20033;-72
2023/12/31 10:24:41;;;;;;;9.52;5.72;;;11.40;99.90;;;;;;5026166;28;20040;-73
2023/12/31 10:27:08;;;;;;;10.32;5.50;;;11.40;99.90;;;;;;5037757;28;20576;-74
2023/12/31 10:29:36;;;;;;;13.55;4.75;;;11.40;99.90;;;;;;5034202;28;20112;-73
2023/12/31 10:32:03;;;;;;;9.75;4.60;;;11.60;99.90;;;;;;5043492;28;20037;-74
2023/12/31 10:34:29;;;;;;;7.57;4.78;;;11.60;99.90;;;;;;5041661;28;20048;-73
2023/12/31 10:37:21;;;;;;;7.83;4.00;;;11.60;99.90;;;;;;5043060;28;20047;-74
2023/12/31 10:39:47;;;;;;;9.50;4.68;;;11.50;99.90;;;;;;5036224;28;20044;-73
2023/12/31 10:42:13;;;;;;;12.77;5.07;;;11.40;99.90;;;;;;5033240;28;20025;-74
2023/12/31 10:44:39;;;;;;;8.02;4.78;;;11.20;99.90;;;;;;5032897;28;20613;-72
2023/12/31 10:47:06;;;;;;;9.98;4.90;;;11.10;99.90;;;;;;5038626;28;20041;-73
2023/12/31 10:49:34;;;;;;;5.88;4.38;;;11.00;99.90;;;;;;5057635;28;20067;-74
2023/12/31 10:52:02;;;;;;;9.70;4.53;;;10.90;99.90;;;;;;5034228;28;20041;-74
2023/12/31 10:54:47;;;;;;;12.02;4.80;;;10.80;99.90;;;;;;5038518;28;20031;-73
2023/12/31 10:57:14;;;;;;;12.07;4.90;;;10.80;99.90;;;;;;5039328;28;20029;-74
2023/12/31 10:59:44;;;;;;;13.77;5.43;;;10.70;99.90;;;;;;5036830;28;20534;-72
2023/12/31 11:02:17;;;;;;;8.52;4.95;;;10.70;99.90;;;;;;5044565;28;20056;-72
2023/12/31 11:04:47;;;;;;;11.32;5.47;;;10.90;99.90;;;;;;5044134;28;20041;-74
2023/12/31 11:07:20;;;;;;;9.55;5.95;;;10.90;99.90;;;;;;5035173;28;20503;-75
2023/12/31 11:09:47;;;;;;;12.55;6.05;;;11.00;99.90;;;;;;5046207;28;20090;-74
2023/12/31 11:12:14;;;;;;;9.60;6.07;;;11.00;99.90;;;;;;5036084;28;20112;-75
2023/12/31 11:15:04;;;;;;;10.80;6.05;;;11.00;99.90;;;;;;5033760;28;21185;-75
2023/12/31 11:17:57;;;;;;;12.07;6.53;;;11.00;99.90;;;;;;5059060;28;20034;-74
2023/12/31 11:20:47;;;;;;;11.50;6.22;;;11.00;99.90;;;;;;5039236;28;20231;-74
2023/12/31 11:23:25;;;;;;;9.07;6.28;;;11.10;99.90;;;;;;5043515;28;20040;-75
2023/12/31 11:25:51;;;;;;;11.63;6.53;;;11.10;99.90;;;;;;5038627;28;21346;-75
2023/12/31 11:28:17;;;;;;;13.65;6.50;;;11.10;99.90;;;;;;5040283;28;20561;-74
2023/12/31 11:31:02;;;;;;;15.38;6.50;;;11.00;99.90;;;;;;5033070;28;20061;-73
2023/12/31 11:33:34;;;;;;;6.75;3.10;;;11.00;99.90;;;;;;5040014;28;20021;-75
2023/12/31 11:36:15;;;;;;;11.80;2.20;;;10.60;99.90;;;;;;5043787;28;20089;-74
2023/12/31 11:38:56;;;;;;;6.07;1.98;;;10.20;99.90;;;;;;5039201;28;20037;-74
2023/12/31 11:41:24;;;;;;;7.50;2.05;;;9.80;99.90;;;;;;5038415;28;20446;-76
2023/12/31 11:43:53;;;;;;;2.33;1.10;;;9.60;99.90;;;;;;5037689;28;20036;-75
2023/12/31 11:46:32;;;;;;;7.45;1.40;;;9.50;99.90;;;;;;5042401;28;20115;-74
2023/12/31 11:48:58;;;;;;;4.22;1.60;;;9.40;99.90;;;;;;5037726;28;20029;-74
2023/12/31 11:51:28;;;;;;;3.05;1.67;;;9.40;99.90;;;;;;5042023;28;20547;-76
2023/12/31 11:53:56;;;;;;;3.22;1.75;;;9.40;99.90;;;;;;5036341;28;20533;-74
2023/12/31 11:56:24;;;;;;;2.28;1.92;;;9.40;99.90;;;;;;5040138;28;20029;-75
2023/12/31 11:58:51;;;;;;;5.45;1.13;;;9.30;99.90;;;;;;5040104;28;20129;-74
2023/12/31 12:01:17;;;;;;;5.97;1.05;;;9.30;99.90;;;;;;5042518;28;20029;-76
2023/12/31 12:03:45;;;;;;;;;;;9.30;99.90;;;;;;5022703;28;20103;-75
2023/12/31 12:06:11;;;;;;;1.25;0.50;;;9.20;99.90;;;;;;5054999;28;19921;-75
2023/12/31 12:08:39;;;;;;;3.58;1.20;;;9.20;99.90;;;;;;5046490;28;20039;-74
2023/12/31 12:11:04;;;;;;;3.38;2.15;;;9.20;99.90;;;;;;5028969;28;20064;-75
2023/12/31 12:13:30;;;;;;;7.67;2.03;;;9.10;99.90;;;;;;5049844;28;20061;-75
2023/12/31 12:15:59;;;;;;;4.53;1.43;;;9.10;99.90;;;;;;5028745;28;20033;-74
2023/12/31 12:18:24;;;;;;;3.33;1.20;;;9.10;99.90;;;;;;5045375;28;20445;-75
2023/12/31 12:20:50;;;;;;;7.07;2.10;;;9.10;99.90;;;;;;5022144;28;20149;-74
2023/12/31 12:23:20;;;;;;;9.90;1.73;;;9.10;99.90;;;;;;5047057;28;20040;-75
2023/12/31 12:25:47;;;;;;;3.95;1.77;;;9.10;99.90;;;;;;5031818;28;20049;-75
2023/12/31 12:28:14;;;;;;;6.47;1.67;;;9.10;99.90;;;;;;5044682;28;20079;-75
2023/12/31 12:30:41;;;;;;;3.40;1.52;;;9.00;99.90;;;;;;5039866;28;20038;-75
2023/12/31 12:33:07;;;;;;;3.22;1.48;;;9.00;99.90;;;;;;5044835;28;20025;-74
2023/12/31 12:35:36;;;;;;;3.35;1.60;;;8.90;99.90;;;;;;5043118;28;20032;-75
2023/12/31 12:38:02;;;;;;;1.80;1.00;;;8.90;99.90;;;;;;5049227;28;20089;-75
2023/12/31 12:40:29;;;;;;;6.75;1.75;;;8.70;99.90;;;;;;5047395;28;20499;-73
2023/12/31 12:42:55;;;;;;;;;;;8.60;99.90;;;;;;5038839;28;20033;-76